KNQI/NQI METAR and TAF weather

Enter ICAO airport designator
Station Type Date Time Source
KNQI METAR 2021/07/30 06:56 UTC NOAA

KNQI 300656Z AUTO 00000KT 10SM CLR 24/23 A3000 RMK AO2 SLP155 T02440233 PWINO PNO $


Station Type Date Time Source
KNQI Decoded METAR 2021/07/30 06:56 UTC NOAA

KINGSVILLE NAS, TX, United States (KNQI) 27-50N 097-81W 15M
Jul 30, 2021 - 02:56 AM EDT / 2021.07.30 0656 UTC
Wind: Calm:0
Visibility: 10 mile(s):0
Sky conditions: clear
Temperature: 75.9 F (24.4 C)
Dew Point: 73.9 F (23.3 C)
Relative Humidity: 93%
Pressure (altimeter): 30 in. Hg (1015 hPa)
ob: KNQI 300656Z AUTO 00000KT 10SM CLR 24/23 A3000 RMK AO2 SLP155 T02440233 PWINO PNO
cycle: 7

Station Type Date Time Source
KNQI TAF 2021/07/29 23:06 UTC NOAA

TAF KNQI 2923/3023 12010KT 9999 FEW030 SCT250 QNH2992INS
FM300200 VRB06KT 9999 FEW015 SCT030 QNH2994INS
FM301800 11010KT 9999 SCT040 BKN200 QNH2994INS AUTOMATED SENSOR METWATCH 3005 TIL 3012 T22/3012Z T35/3020Z FN20058

Example: see airport list